Time;durP1;ratioP1;P1;durP2;ratioP2;P2;SDS_P1;SDS_P2;PMS_P1;PMS_P2;Temp;Humidity;BMP_temperature;BMP_pressure;BME280_temperature;BME280_humidity;BME280_pressure;Samples;Min_cycle;Max_cycle;Signal;HPM_P1;HPM_P2
2022/03/23 00:01:34;;;;;;;57.08;40.38;;;5.20;99.90;;;;;;5093522;28;20492;-56
2022/03/23 00:04:02;;;;;;;52.72;37.38;;;5.00;99.90;;;;;;5091899;28;20059;-56
2022/03/23 00:06:27;;;;;;;51.92;37.53;;;5.20;99.90;;;;;;5093082;28;20043;-55
2022/03/23 00:08:53;;;;;;;52.03;34.78;;;5.10;99.90;;;;;;5091170;28;20050;-56
2022/03/23 00:11:20;;;;;;;47.10;32.95;;;;;;;;;;5091348;28;20560;-56
2022/03/23 00:13:46;;;;;;;56.20;37.17;;;5.10;99.90;;;;;;5091919;28;20377;-55
2022/03/23 00:16:12;;;;;;;52.80;37.95;;;5.10;99.90;;;;;;5091776;28;20343;-54
2022/03/23 00:18:38;;;;;;;52.88;37.58;;;;;;;;;;5091537;28;20036;-54
2022/03/23 00:21:04;;;;;;;54.22;36.97;;;5.10;99.90;;;;;;5091475;28;20074;-56
2022/03/23 00:23:30;;;;;;;53.88;38.17;;;;;;;;;;5093399;28;20187;-54
2022/03/23 00:25:58;;;;;;;56.85;38.10;;;;;;;;;;5090954;28;20039;-55
2022/03/23 00:28:24;;;;;;;49.78;36.15;;;5.00;99.90;;;;;;5090992;28;20044;-55
2022/03/23 00:30:50;;;;;;;48.35;34.35;;;;;;;;;;5091553;28;20043;-56
2022/03/23 00:33:16;;;;;;;47.58;35.83;;;4.90;99.90;;;;;;5092287;28;20039;-56
2022/03/23 00:35:44;;;;;;;51.20;35.28;;;4.80;99.90;;;;;;5091735;28;20039;-57
2022/03/23 00:38:10;;;;;;;54.85;38.83;;;;;;;;;;5090386;28;20657;-55
2022/03/23 00:40:38;;;;;;;54.10;38.63;;;;;;;;;;5091076;28;20067;-55
2022/03/23 00:43:04;;;;;;;52.28;37.85;;;;;;;;;;5094698;28;20206;-57
2022/03/23 00:45:30;;;;;;;47.78;33.33;;;3.90;99.90;;;;;;5096790;28;20043;-54
2022/03/23 00:47:59;;;;;;;50.63;35.28;;;4.70;99.90;;;;;;5094820;28;20046;-55
2022/03/23 00:50:26;;;;;;;48.72;34.75;;;;;;;;;;5095251;28;20039;-54
2022/03/23 00:52:52;;;;;;;62.08;36.45;;;4.60;99.90;;;;;;5096211;28;20096;-55
2022/03/23 00:55:18;;;;;;;49.33;36.08;;;;;;;;;;5095364;28;20031;-55
2022/03/23 00:57:46;;;;;;;48.08;35.15;;;4.50;99.90;;;;;;5096325;28;20559;-55
2022/03/23 01:00:17;;;;;;;51.92;36.38;;;4.50;99.90;;;;;;5078498;28;20044;-54
2022/03/23 01:02:45;;;;;;;48.35;35.10;;;4.50;99.90;;;;;;5095823;28;20043;-56
2022/03/23 01:05:13;;;;;;;52.55;35.80;;;4.40;99.90;;;;;;5095882;28;20097;-55
2022/03/23 01:07:39;;;;;;;48.75;34.80;;;;;;;;;;5095964;28;20092;-59
2022/03/23 01:10:06;;;;;;;47.33;35.13;;;4.50;99.90;;;;;;5096835;28;20043;-54
2022/03/23 01:12:33;;;;;;;42.13;33.55;;;;;;;;;;5097368;28;20058;-55
2022/03/23 01:14:58;;;;;;;45.90;32.80;;;4.30;99.90;;;;;;5096319;28;20387;-54
2022/03/23 01:17:24;;;;;;;42.92;32.55;;;;;;;;;;5095631;28;20066;-53
2022/03/23 01:19:51;;;;;;;42.38;30.88;;;;;;;;;;5095379;28;20055;-51
2022/03/23 01:22:17;;;;;;;44.33;32.88;;;;;;;;;;5096057;28;20062;-51
2022/03/23 01:24:44;;;;;;;40.42;30.90;;;4.30;99.90;;;;;;5094662;28;20357;-54
2022/03/23 01:27:10;;;;;;;45.42;32.78;;;;;;;;;;5094303;28;20403;-51
2022/03/23 01:29:36;;;;;;;41.28;30.65;;;;;;;;;;5094663;28;20504;-52
2022/03/23 01:32:03;;;;;;;43.65;31.00;;;4.30;99.90;;;;;;5095473;28;20709;-51
2022/03/23 01:34:29;;;;;;;42.13;32.05;;;;;;;;;;5075907;28;20311;-51
2022/03/23 01:36:54;;;;;;;39.90;29.17;;;4.20;99.90;;;;;;5095651;28;20050;-52
2022/03/23 01:39:20;;;;;;;38.78;29.33;;;4.10;99.90;;;;;;5093483;28;20043;-52
2022/03/23 01:41:48;;;;;;;41.53;30.10;;;4.30;99.90;;;;;;5095287;28;20046;-54
2022/03/23 01:44:19;;;;;;;41.75;30.85;;;4.30;99.90;;;;;;5094843;28;20101;-50
2022/03/23 01:47:07;;;;;;;41.10;31.57;;;4.40;99.90;;;;;;5095251;28;20663;-55
2022/03/23 01:49:35;;;;;;;38.65;29.90;;;4.40;99.90;;;;;;5095396;28;20040;-54
2022/03/23 01:52:03;;;;;;;41.47;29.88;;;4.50;99.90;;;;;;5092984;28;20061;-51
2022/03/23 01:54:31;;;;;;;37.88;29.13;;;4.20;99.90;;;;;;5094800;28;20054;-52
2022/03/23 01:56:59;;;;;;;36.53;25.23;;;4.30;99.90;;;;;;5094100;28;20032;-56
2022/03/23 01:59:26;;;;;;;37.50;26.88;;;4.20;99.90;;;;;;5094449;28;20036;-56
2022/03/23 02:01:53;;;;;;;35.25;25.90;;;4.10;99.90;;;;;;5093032;28;20123;-57
2022/03/23 02:04:19;;;;;;;26.85;21.38;;;;;;;;;;5094880;28;20503;-56
2022/03/23 02:06:48;;;;;;;45.30;32.90;;;;;;;;;;5077663;28;20687;-56
2022/03/23 02:09:14;;;;;;;41.10;29.85;;;;;;;;;;5077611;28;20211;-56
2022/03/23 02:11:41;;;;;;;37.75;29.40;;;4.10;99.90;;;;;;5095640;28;20040;-57
2022/03/23 02:14:08;;;;;;;35.65;27.13;;;;;;;;;;5094392;28;20067;-57
2022/03/23 02:16:44;;;;;;;29.20;22.90;;;4.10;99.90;;;;;;5095624;28;20047;-58
2022/03/23 02:19:11;;;;;;;37.50;28.70;;;;;;;;;;5095093;28;20526;-58
2022/03/23 02:21:37;;;;;;;33.00;25.40;;;3.90;99.90;;;;;;5095768;28;20039;-58
2022/03/23 02:24:05;;;;;;;38.78;28.98;;;3.80;99.90;;;;;;5094856;28;20050;-59
2022/03/23 02:26:32;;;;;;;39.35;30.10;;;3.90;99.90;;;;;;5094536;28;20120;-58
2022/03/23 02:29:01;;;;;;;36.33;28.42;;;3.70;99.90;;;;;;5094255;28;20116;-59
2022/03/23 02:31:27;;;;;;;36.40;27.48;;;;;;;;;;5095973;28;20067;-58
2022/03/23 02:33:53;;;;;;;44.67;30.13;;;;;;;;;;5076109;28;20507;-58
2022/03/23 02:36:19;;;;;;;40.53;28.17;;;;;;;;;;5094359;28;20951;-58
2022/03/23 02:38:47;;;;;;;35.60;26.17;;;3.50;99.90;;;;;;5074655;28;20036;-58
2022/03/23 02:41:14;;;;;;;38.30;27.42;;;;;;;;;;5092211;28;20330;-58
2022/03/23 02:43:40;;;;;;;31.67;26.08;;;;;;;;;;5092617;28;20036;-58
2022/03/23 02:46:15;;;;;;;34.65;25.17;;;3.60;99.90;;;;;;5092917;28;20035;-58
2022/03/23 02:48:42;;;;;;;36.08;25.23;;;;;;;;;;5093066;28;20040;-59
2022/03/23 02:51:08;;;;;;;30.75;23.35;;;;;;;;;;5093210;28;20574;-59
2022/03/23 03:02:28;;;;;;;30.63;22.73;;;3.60;99.90;;;;;;5091542;28;20044;-58
2022/03/23 03:04:54;;;;;;;27.00;20.25;;;;;;;;;;5092032;28;20611;-59
2022/03/23 03:07:20;;;;;;;28.75;22.20;;;;;;;;;;5091518;28;20193;-58
2022/03/23 03:09:46;;;;;;;32.80;25.50;;;;;;;;;;5093114;28;20067;-58
2022/03/23 03:12:12;;;;;;;30.75;23.73;;;;;;;;;;5074436;28;20043;-59
2022/03/23 03:14:39;;;;;;;33.10;24.67;;;3.40;99.90;;;;;;5093377;28;20107;-59
2022/03/23 03:17:06;;;;;;;28.73;20.83;;;3.50;99.90;;;;;;5092188;28;20423;-58
2022/03/23 03:19:37;;;;;;;27.95;22.25;;;3.50;99.90;;;;;;5092409;28;20063;-59
2022/03/23 03:22:03;;;;;;;26.17;20.00;;;3.40;99.90;;;;;;5091672;28;20070;-59
2022/03/23 03:24:29;;;;;;;29.75;21.60;;;;;;;;;;5095013;28;20061;-59
2022/03/23 03:26:55;;;;;;;32.88;23.05;;;3.30;99.90;;;;;;5075462;28;20377;-59
2022/03/23 03:29:23;;;;;;;32.55;22.65;;;3.40;99.90;;;;;;5093482;28;20046;-58
2022/03/23 03:31:49;;;;;;;25.67;21.15;;;;;;;;;;5094379;28;20554;-58
2022/03/23 03:34:15;;;;;;;32.70;24.48;;;;;;;;;;5093066;28;20130;-58
2022/03/23 03:36:41;;;;;;;31.25;24.02;;;;;;;;;;5092868;28;20036;-58
2022/03/23 03:39:07;;;;;;;32.30;25.35;;;;;;;;;;5092957;28;20356;-58
2022/03/23 03:41:35;;;;;;;34.00;24.23;;;3.40;99.90;;;;;;5075201;28;20045;-58
2022/03/23 03:44:02;;;;;;;29.65;22.05;;;;;;;;;;5092210;28;20032;-58
2022/03/23 03:46:27;;;;;;;32.92;23.55;;;3.40;99.90;;;;;;5093271;28;20039;-58
2022/03/23 03:48:53;;;;;;;36.78;26.30;;;;;;;;;;5090407;28;20082;-58
2022/03/23 03:51:21;;;;;;;32.55;24.50;;;;;;;;;;5091274;28;20332;-58
2022/03/23 03:53:47;;;;;;;30.83;24.55;;;;;;;;;;5092081;28;20055;-58
2022/03/23 03:56:14;;;;;;;35.08;25.33;;;;;;;;;;5091290;28;20502;-58
2022/03/23 03:58:40;;;;;;;33.80;24.75;;;;;;;;;;5092760;28;20451;-58
2022/03/23 04:01:06;;;;;;;35.55;24.77;;;;;;;;;;5091142;28;20036;-58
2022/03/23 04:03:34;;;;;;;37.15;27.00;;;3.30;99.90;;;;;;5090232;28;20142;-58
2022/03/23 04:06:00;;;;;;;35.88;26.60;;;;;;;;;;5089936;28;20039;-58
2022/03/23 04:08:27;;;;;;;34.90;27.20;;;;;;;;;;5092421;28;20547;-58
2022/03/23 04:10:53;;;;;;;40.17;28.73;;;;;;;;;;5091486;28;20039;-58
2022/03/23 04:13:20;;;;;;;35.33;25.88;;;3.50;99.90;;;;;;5090598;28;20138;-58
2022/03/23 04:15:46;;;;;;;34.20;25.75;;;;;;;;;;5089999;28;20040;-57
2022/03/23 04:18:12;;;;;;;36.65;27.13;;;;;;;;;;5092653;28;20050;-57
2022/03/23 04:20:41;;;;;;;36.55;26.65;;;3.20;99.90;;;;;;5091588;28;20039;-58
2022/03/23 04:23:07;;;;;;;35.25;25.02;;;;;;;;;;5107197;28;20400;-57
2022/03/23 04:25:33;;;;;;;40.35;27.75;;;;;;;;;;5073759;28;20067;-57
2022/03/23 04:28:01;;;;;;;35.22;26.35;;;3.10;99.90;;;;;;5092633;28;20303;-58
2022/03/23 04:30:30;;;;;;;36.95;26.90;;;3.20;99.90;;;;;;5091173;28;20039;-58
2022/03/23 04:32:56;;;;;;;36.70;26.92;;;;;;;;;;5091206;28;20101;-57
2022/03/23 04:35:22;;;;;;;40.65;28.77;;;;;;;;;;5090948;28;20681;-58
2022/03/23 04:37:49;;;;;;;37.08;27.63;;;;;;;;;;5091023;28;20560;-58
2022/03/23 04:40:15;;;;;;;36.60;27.13;;;;;;;;;;5090040;28;20043;-58
2022/03/23 04:42:42;;;;;;;42.08;28.08;;;3.00;99.90;;;;;;5091226;28;20035;-58
2022/03/23 04:45:09;;;;;;;34.00;26.35;;;3.10;99.90;;;;;;5091274;28;20031;-58
2022/03/23 04:47:36;;;;;;;40.25;28.45;;;;;;;;;;5091635;28;20039;-58
2022/03/23 04:50:05;;;;;;;43.67;30.15;;;3.00;99.90;;;;;;5074849;28;20503;-58
2022/03/23 04:52:31;;;;;;;38.47;27.55;;;;;;;;;;5093339;28;20043;-57
2022/03/23 04:54:57;;;;;;;48.53;32.42;;;;;;;;;;5092862;28;20072;-57
2022/03/23 04:57:27;;;;;;;42.13;28.85;;;3.00;99.90;;;;;;5072821;28;20123;-57
2022/03/23 04:59:54;;;;;;;46.90;31.88;;;3.00;99.90;;;;;;5092202;28;20526;-58
2022/03/23 05:02:20;;;;;;;55.63;33.55;;;;;;;;;;5092029;28;20388;-57
2022/03/23 05:04:47;;;;;;;46.90;30.35;;;;;;;;;;5091803;28;20508;-59
2022/03/23 05:07:13;;;;;;;48.15;32.42;;;2.80;99.90;;;;;;5091020;28;20734;-58
2022/03/23 05:09:39;;;;;;;49.35;32.00;;;;;;;;;;5091995;28;20035;-58
2022/03/23 05:12:05;;;;;;;46.78;32.05;;;2.80;99.90;;;;;;5072589;28;20028;-58
2022/03/23 05:14:32;;;;;;;41.38;29.48;;;;;;;;;;5091530;28;20039;-58
2022/03/23 05:16:58;;;;;;;40.80;29.15;;;;;;;;;;5091072;28;20048;-58
2022/03/23 05:19:24;;;;;;;42.63;30.92;;;;;;;;;;5091785;28;20062;-58
2022/03/23 05:21:50;;;;;;;37.17;28.20;;;;;;;;;;5090968;28;20043;-58
2022/03/23 05:24:18;;;;;;;41.38;29.17;;;2.90;99.90;;;;;;5090843;28;20118;-59
2022/03/23 05:26:44;;;;;;;37.28;27.00;;;;;;;;;;5091436;28;20069;-58
2022/03/23 05:29:10;;;;;;;39.25;27.35;;;;;;;;;;5094778;28;20054;-58
2022/03/23 05:31:37;;;;;;;47.20;29.77;;;;;;;;;;5095105;28;20039;-59
2022/03/23 05:34:04;;;;;;;41.78;28.42;;;;;;;;;;5093409;28;20653;-58
2022/03/23 05:36:30;;;;;;;41.33;31.13;;;;;;;;;;5092798;28;20039;-57
2022/03/23 05:38:57;;;;;;;46.50;32.30;;;2.80;99.90;;;;;;5094134;28;20127;-58
2022/03/23 05:41:23;;;;;;;45.33;32.25;;;;;;;;;;5094367;28;20040;-58
2022/03/23 05:43:49;;;;;;;46.10;30.88;;;;;;;;;;5091965;28;20328;-57
2022/03/23 05:46:17;;;;;;;36.45;28.38;;;2.90;99.90;;;;;;5093334;28;20048;-58
2022/03/23 05:48:44;;;;;;;39.28;28.90;;;;;;;;;;5094983;28;20032;-58
2022/03/23 05:51:10;;;;;;;47.63;31.02;;;;;;;;;;5093313;28;20043;-58
2022/03/23 05:53:36;;;;;;;44.80;30.08;;;;;;;;;;5095053;28;20089;-58
2022/03/23 05:56:06;;;;;;;40.38;29.20;;;3.10;99.90;;;;;;5095293;28;20100;-58
2022/03/23 05:58:32;;;;;;;45.60;29.98;;;;;;;;;;5095257;28;20225;-58
2022/03/23 06:01:00;;;;;;;41.45;30.10;;;3.20;99.90;;;;;;5095010;28;20571;-57
2022/03/23 06:03:26;;;;;;;39.72;27.55;;;;;;;;;;5095603;28;20035;-57
2022/03/23 06:05:52;;;;;;;43.47;28.52;;;;;;;;;;5093407;28;20059;-57
2022/03/23 06:08:19;;;;;;;39.10;28.42;;;;;;;;;;5094941;28;20078;-57
2022/03/23 06:10:45;;;;;;;42.90;29.55;;;;;;;;;;5095249;28;20494;-57
2022/03/23 06:13:11;;;;;;;41.78;30.88;;;;;;;;;;5094913;28;20652;-58
2022/03/23 06:15:37;;;;;;;38.88;28.55;;;4.30;99.90;;;;;;5093369;28;20139;-60
2022/03/23 06:18:05;;;;;;;36.72;27.73;;;4.60;99.90;;;;;;5092511;28;20400;-58
2022/03/23 06:20:31;;;;;;;37.70;28.90;;;4.90;99.90;;;;;;5075001;28;20051;-58
2022/03/23 06:22:57;;;;;;;37.53;27.27;;;5.20;99.90;;;;;;5092771;28;20564;-59
2022/03/23 06:25:25;;;;;;;38.20;27.30;;;5.40;99.90;;;;;;5094457;28;20042;-59
2022/03/23 06:27:51;;;;;;;35.38;26.67;;;5.70;99.90;;;;;;5093205;28;20041;-58
2022/03/23 06:30:16;;;;;;;40.08;28.73;;;6.10;99.90;;;;;;5093691;28;20400;-58
2022/03/23 06:32:44;;;;;;;38.35;28.95;;;6.60;99.90;;;;;;5093783;28;20047;-57
2022/03/23 06:35:10;;;;;;;42.05;29.23;;;7.40;99.90;;;;;;5092837;28;20105;-58
2022/03/23 06:37:36;;;;;;;37.38;28.23;;;7.20;99.90;;;;;;5092400;28;20614;-58
2022/03/23 06:40:03;;;;;;;36.88;27.10;;;7.70;99.90;;;;;;5093420;28;20341;-56
2022/03/23 06:42:29;;;;;;;35.53;27.65;;;8.30;99.90;;;;;;5092732;28;20032;-58
2022/03/23 06:44:55;;;;;;;36.45;26.02;;;9.20;99.90;;;;;;5092994;28;20043;-57
2022/03/23 06:47:22;;;;;;;33.28;26.15;;;9.80;99.90;;;;;;5091586;28;21283;-56
2022/03/23 06:49:48;;;;;;;35.17;27.77;;;9.60;99.90;;;;;;5093893;28;20404;-56
2022/03/23 06:52:17;;;;;;;38.38;30.52;;;11.40;99.90;;;;;;5092373;28;20040;-56
2022/03/23 06:54:44;;;;;;;42.90;31.50;;;12.10;99.90;;;;;;5092754;28;20051;-55
2022/03/23 06:57:10;;;;;;;39.58;30.70;;;12.90;99.90;;;;;;5092782;28;20443;-56
2022/03/23 06:59:36;;;;;;;38.25;31.60;;;11.60;99.90;;;;;;5093470;28;20051;-57
2022/03/23 07:02:02;;;;;;;38.95;32.20;;;13.10;99.90;;;;;;5094307;28;20040;-56
2022/03/23 07:04:27;;;;;;;48.65;37.08;;;12.10;99.90;;;;;;5092686;28;20051;-57
2022/03/23 07:06:53;;;;;;;50.20;36.30;;;12.40;99.90;;;;;;5093121;28;20059;-57
2022/03/23 07:09:31;;;;;;;45.70;36.05;;;12.30;99.90;;;;;;5094507;28;20165;-57
2022/03/23 07:11:59;;;;;;;45.33;35.63;;;12.20;99.90;;;;;;5093941;28;20044;-56
2022/03/23 07:14:27;;;;;;;46.80;38.63;;;14.60;99.90;;;;;;5094542;28;20062;-57
2022/03/23 07:16:53;;;;;;;46.83;36.10;;;12.50;99.90;;;;;;5094255;28;20065;-57
2022/03/23 07:19:20;;;;;;;53.47;40.22;;;12.60;99.90;;;;;;5093255;28;20424;-56
2022/03/23 07:21:46;;;;;;;50.60;40.63;;;13.00;99.90;;;;;;5093404;28;20047;-56
2022/03/23 07:24:12;;;;;;;45.40;39.13;;;13.70;99.90;;;;;;5091863;28;20096;-57
2022/03/23 07:26:38;;;;;;;46.03;38.50;;;14.40;99.90;;;;;;5093166;28;20087;-56
2022/03/23 07:29:05;;;;;;;48.40;35.67;;;13.90;99.90;;;;;;5092502;28;20035;-55
2022/03/23 07:31:31;;;;;;;49.15;37.65;;;14.20;99.90;;;;;;5091049;28;20059;-55
2022/03/23 07:33:59;;;;;;;45.65;37.80;;;15.90;99.90;;;;;;5091833;28;20130;-56
2022/03/23 07:36:26;;;;;;;48.22;36.83;;;15.50;99.90;;;;;;5091897;28;20655;-55
2022/03/23 07:38:52;;;;;;;48.50;37.63;;;16.20;99.90;;;;;;5092376;28;20122;-55
2022/03/23 07:41:18;;;;;;;47.47;37.17;;;15.20;99.90;;;;;;5091759;28;20060;-56
2022/03/23 07:43:47;;;;;;;48.95;36.83;;;15.40;99.90;;;;;;5091470;28;20040;-56
2022/03/23 07:46:13;;;;;;;50.25;37.53;;;17.00;99.90;;;;;;5090908;28;20126;-56
2022/03/23 07:48:39;;;;;;;46.60;37.95;;;15.70;99.90;;;;;;5092365;28;20452;-57
2022/03/23 07:51:04;;;;;;;46.50;37.90;;;14.60;99.90;;;;;;5091683;28;20257;-56
2022/03/23 07:53:30;;;;;;;48.03;37.45;;;14.30;99.90;;;;;;5092205;28;20104;-57
2022/03/23 07:55:56;;;;;;;136.27;76.07;;;14.70;99.90;;;;;;5092572;28;20575;-56
2022/03/23 07:58:22;;;;;;;351.23;260.63;;;15.60;99.90;;;;;;5091644;28;20401;-57
2022/03/23 08:00:48;;;;;;;437.45;274.98;;;16.40;99.90;;;;;;5091549;28;20028;-56
2022/03/23 08:03:14;;;;;;;45.97;37.17;;;16.80;99.90;;;;;;5091069;28;20131;-57
2022/03/23 08:05:42;;;;;;;42.63;33.88;;;16.60;99.90;;;;;;5092364;28;20142;-57
2022/03/23 08:08:10;;;;;;;41.35;33.80;;;16.80;99.90;;;;;;5091406;28;20535;-57
2022/03/23 08:10:43;;;;;;;729.67;645.47;;;17.20;99.90;;;;;;5074240;28;20639;-56
2022/03/23 08:13:16;;;;;;;1349.10;760.70;;;18.40;99.90;;;;;;5093343;28;20095;-56
2022/03/23 08:15:42;;;;;;;840.75;758.22;;;18.50;99.90;;;;;;5093459;28;20043;-57
2022/03/23 08:18:08;;;;;;;662.15;594.15;;;18.00;99.90;;;;;;5092754;28;20055;-57
2022/03/23 08:20:35;;;;;;;298.40;244.35;;;19.50;99.90;;;;;;5091543;28;20032;-56
2022/03/23 08:23:01;;;;;;;40.78;30.58;;;19.40;99.90;;;;;;5092689;28;20050;-57
2022/03/23 08:25:27;;;;;;;33.70;28.52;;;19.90;99.90;;;;;;5093589;28;20377;-57
2022/03/23 08:27:56;;;;;;;39.25;28.10;;;17.30;99.90;;;;;;5092824;28;20101;-57
2022/03/23 08:30:22;;;;;;;37.25;28.42;;;17.00;99.90;;;;;;5092823;28;20046;-57
2022/03/23 08:32:48;;;;;;;40.30;28.75;;;17.50;99.90;;;;;;5073899;28;20036;-57
2022/03/23 08:35:13;;;;;;;36.47;28.55;;;17.30;99.90;;;;;;5092213;28;20040;-57
2022/03/23 08:37:39;;;;;;;34.30;26.73;;;16.80;99.90;;;;;;5091198;28;20036;-56
2022/03/23 08:40:05;;;;;;;37.80;27.85;;;17.50;99.90;;;;;;5091493;28;20329;-58
2022/03/23 08:42:34;;;;;;;32.75;26.80;;;16.70;99.90;;;;;;5091476;28;20043;-56
2022/03/23 08:44:59;;;;;;;34.72;27.88;;;17.40;99.90;;;;;;5090295;28;20035;-58
2022/03/23 08:47:27;;;;;;;37.78;27.40;;;17.80;99.90;;;;;;5091242;28;20042;-57
2022/03/23 08:49:53;;;;;;;36.97;28.30;;;17.10;99.90;;;;;;5090841;28;20706;-57
2022/03/23 08:52:19;;;;;;;39.17;28.15;;;16.70;99.90;;;;;;5090819;28;20590;-56
2022/03/23 08:54:45;;;;;;;34.70;26.17;;;17.50;99.90;;;;;;5091962;28;20925;-57
2022/03/23 08:57:10;;;;;;;37.53;26.38;;;17.20;99.90;;;;;;5091876;28;20126;-57
2022/03/23 08:59:36;;;;;;;34.00;26.13;;;18.60;99.90;;;;;;5091788;28;20043;-56
2022/03/23 09:02:02;;;;;;;33.17;26.00;;;19.10;99.90;;;;;;5090369;28;20035;-58
2022/03/23 09:04:27;;;;;;;33.38;25.10;;;17.50;99.90;;;;;;5095035;28;20509;-56
2022/03/23 09:06:53;;;;;;;37.22;27.98;;;17.80;99.90;;;;;;5095064;28;20054;-56
2022/03/23 09:09:19;;;;;;;29.73;23.98;;;17.70;99.90;;;;;;5075976;28;20797;-57
2022/03/23 09:11:44;;;;;;;32.08;25.73;;;18.10;99.90;;;;;;5095237;28;20051;-57
2022/03/23 09:14:12;;;;;;;30.13;23.80;;;18.50;99.90;;;;;;5095219;28;20028;-57
2022/03/23 09:16:38;;;;;;;28.73;23.30;;;18.50;99.90;;;;;;5093830;28;20095;-56
2022/03/23 09:19:03;;;;;;;30.70;24.17;;;18.40;99.90;;;;;;5094198;28;20130;-57
2022/03/23 09:21:29;;;;;;;31.35;24.98;;;19.00;98.60;;;;;;5096360;28;20123;-57
2022/03/23 09:23:57;;;;;;;29.95;24.05;;;19.30;98.30;;;;;;5096662;28;20296;-57
2022/03/23 09:26:23;;;;;;;29.23;24.80;;;19.80;98.30;;;;;;5097297;28;20035;-57
2022/03/23 09:28:51;;;;;;;32.60;25.08;;;20.60;96.80;;;;;;5095948;28;20046;-56
2022/03/23 09:31:18;;;;;;;34.13;25.40;;;20.30;96.30;;;;;;5096389;28;20050;-56
2022/03/23 09:33:48;;;;;;;30.23;24.25;;;21.40;95.20;;;;;;5096164;28;20039;-56
2022/03/23 09:39:01;;;;;;;32.28;26.63;;;20.10;95.10;;;;;;5096210;28;20961;-57
2022/03/23 09:41:27;;;;;;;33.65;22.58;;;20.80;94.50;;;;;;5095200;28;20043;-57
2022/03/23 09:43:53;;;;;;;30.15;22.70;;;22.00;93.00;;;;;;5093479;28;20046;-56
2022/03/23 09:46:19;;;;;;;28.92;23.35;;;21.40;92.70;;;;;;5093525;28;20330;-57
2022/03/23 09:48:45;;;;;;;27.63;22.75;;;21.10;91.30;;;;;;5095003;28;20031;-56
2022/03/23 09:51:12;;;;;;;25.90;21.60;;;21.10;90.30;;;;;;5094167;28;20051;-57
2022/03/23 09:53:39;;;;;;;25.52;22.83;;;20.70;90.20;;;;;;5092727;28;20044;-56
2022/03/23 09:56:04;;;;;;;34.13;21.98;;;20.50;90.40;;;;;;5095147;28;20882;-58
2022/03/23 09:58:30;;;;;;;30.75;21.95;;;20.20;90.30;;;;;;5094393;28;20130;-57
2022/03/23 10:00:56;;;;;;;27.02;21.30;;;19.50;91.70;;;;;;5094096;28;20427;-58
2022/03/23 10:04:03;;;;;;;23.67;19.42;;;20.30;90.30;;;;;;5092926;28;20120;-58
2022/03/23 10:07:04;;;;;;;25.33;20.33;;;19.00;86.40;;;;;;5093333;28;20452;-57
2022/03/23 10:10:19;;;;;;;23.50;19.95;;;18.90;87.70;;;;;;5010413;28;20046;-58
2022/03/23 10:13:38;;;;;;;25.90;20.80;;;18.50;90.20;;;;;;5010238;28;20037;-58
2022/03/23 10:16:41;;;;;;;25.80;19.70;;;18.30;88.50;;;;;;4969675;28;20528;-58
2022/03/23 10:19:11;;;;;;;23.33;19.58;;;18.30;87.00;;;;;;4970548;28;20050;-57
2022/03/23 10:21:42;;;;;;;29.38;18.80;;;16.70;88.90;;;;;;4972607;28;20058;-58
2022/03/23 10:24:07;;;;;;;26.50;19.52;;;18.10;89.80;;;;;;4968925;28;20046;-56
2022/03/23 10:26:36;;;;;;;22.52;18.30;;;18.10;90.00;;;;;;4955805;28;20065;-58
2022/03/23 10:29:03;;;;;;;21.42;18.50;;;18.50;88.30;;;;;;4957404;28;20047;-57
2022/03/23 10:31:31;;;;;;;24.77;17.88;;;18.10;89.10;;;;;;4973131;28;20522;-57
2022/03/23 10:33:57;;;;;;;25.95;18.40;;;18.20;88.20;;;;;;4971615;28;20050;-57
2022/03/23 10:36:27;;;;;;;21.13;17.23;;;18.20;88.20;;;;;;4971491;28;20511;-58
2022/03/23 10:38:59;;;;;;;24.00;17.77;;;18.30;88.10;;;;;;4972075;28;20754;-58
2022/03/23 10:41:26;;;;;;;27.40;17.23;;;20.30;89.10;;;;;;4972450;28;20511;-58
2022/03/23 10:43:52;;;;;;;21.75;15.82;;;18.50;87.90;;;;;;4971481;28;20230;-58
2022/03/23 10:46:20;;;;;;;22.30;16.05;;;20.10;89.30;;;;;;4998923;28;20045;-57
2022/03/23 10:49:02;;;;;;;20.85;14.27;;;20.30;89.50;;;;;;5030616;28;20119;-56
2022/03/23 10:51:36;;;;;;;22.23;15.07;;;19.00;84.90;;;;;;5093669;28;20089;-58
2022/03/23 10:54:18;;;;;;;25.38;15.13;;;18.90;85.10;;;;;;5073783;28;20523;-57
2022/03/23 10:56:45;;;;;;;22.88;16.08;;;19.20;86.10;;;;;;5094060;28;20158;-57
2022/03/23 10:59:22;;;;;;;23.30;15.00;;;21.10;87.60;;;;;;5074748;28;20043;-58
2022/03/23 11:02:04;;;;;;;23.77;12.55;;;19.10;86.70;;;;;;5092822;28;20063;-57
2022/03/23 11:04:53;;;;;;;24.40;13.18;;;19.30;83.60;;;;;;5092154;28;20079;-57
2022/03/23 11:07:24;;;;;;;22.05;12.70;;;19.30;83.00;;;;;;5093216;28;20130;-58
2022/03/23 11:18:14;;;;;;;23.40;13.23;;;19.40;83.50;;;;;;5093496;28;20058;-57
2022/03/23 11:20:51;;;;;;;21.15;12.00;;;19.60;81.10;;;;;;5092378;28;20604;-57
2022/03/23 11:23:23;;;;;;;21.75;12.35;;;19.60;80.50;;;;;;5091862;28;20031;-57
2022/03/23 11:25:53;;;;;;;21.40;11.98;;;19.70;83.60;;;;;;5090593;28;20146;-57
2022/03/23 11:28:20;;;;;;;21.98;12.35;;;19.80;82.90;;;;;;5092546;28;20042;-54
2022/03/23 11:30:50;;;;;;;21.67;9.18;;;20.00;82.20;;;;;;5091992;28;21072;-56
2022/03/23 11:33:20;;;;;;;15.85;6.78;;;19.70;79.70;;;;;;5092385;28;20084;-55
2022/03/23 11:35:48;;;;;;;21.77;8.68;;;19.40;79.70;;;;;;5092314;28;20032;-55
2022/03/23 11:38:19;;;;;;;20.70;10.00;;;19.50;79.70;;;;;;5093985;28;20519;-55
2022/03/23 11:40:47;;;;;;;22.17;10.48;;;19.50;80.20;;;;;;5094129;28;20080;-55
2022/03/23 11:43:14;;;;;;;22.45;11.25;;;19.50;81.40;;;;;;5092481;28;20046;-54
2022/03/23 11:45:43;;;;;;;21.23;11.35;;;19.60;82.90;;;;;;5092513;28;20042;-55
2022/03/23 11:48:22;;;;;;;20.42;11.02;;;19.60;82.20;;;;;;5092362;28;20051;-55
2022/03/23 11:51:19;;;;;;;24.67;9.77;;;19.50;82.70;;;;;;5092992;28;20542;-54
2022/03/23 11:53:54;;;;;;;16.35;10.93;;;19.40;79.60;;;;;;5091698;28;20111;-52
2022/03/23 11:56:35;;;;;;;21.38;10.32;;;19.50;79.60;;;;;;5092241;28;20114;-53
2022/03/23 11:59:21;;;;;;;22.10;9.63;;;21.00;82.60;;;;;;5091271;28;20116;-51
2022/03/23 12:01:47;;;;;;;17.88;8.60;;;19.40;81.80;;;;;;5090809;28;20703;-49
2022/03/23 12:04:21;;;;;;;22.65;8.57;;;19.30;81.60;;;;;;5088768;28;20448;-53
2022/03/23 12:06:57;;;;;;;21.70;9.00;;;21.70;83.30;;;;;;5091133;28;20084;-53
2022/03/23 12:09:44;;;;;;;17.38;8.85;;;21.60;82.20;;;;;;5091648;28;20042;-51
2022/03/23 12:12:27;;;;;;;19.17;8.88;;;19.50;80.40;;;;;;5090211;28;20048;-52
2022/03/23 12:15:23;;;;;;;26.65;9.85;;;19.30;78.20;;;;;;5089427;28;20518;-49
2022/03/23 12:17:59;;;;;;;20.95;7.28;;;19.50;79.80;;;;;;5091221;28;20106;-54
2022/03/23 12:20:29;;;;;;;20.83;8.63;;;19.20;81.00;;;;;;5090244;28;20831;-51
2022/03/23 12:23:10;;;;;;;17.90;8.82;;;19.30;82.30;;;;;;5091567;28;20039;-50
2022/03/23 12:26:10;;;;;;;15.53;7.87;;;19.10;79.60;;;;;;5091814;28;20035;-50
2022/03/23 12:29:02;;;;;;;16.80;7.00;;;19.10;78.80;;;;;;5091918;28;20054;-48
2022/03/23 12:31:39;;;;;;;15.77;8.77;;;20.30;82.80;;;;;;5007698;28;20049;-50
2022/03/23 12:34:26;;;;;;;19.13;9.05;;;21.50;83.80;;;;;;5007821;28;20041;-49
2022/03/23 12:36:57;;;;;;;27.00;9.45;;;19.30;81.50;;;;;;5008919;28;20226;-49
2022/03/23 12:39:40;;;;;;;17.77;9.48;;;19.20;82.10;;;;;;5012797;28;20057;-49
2022/03/23 12:42:12;;;;;;;19.27;9.60;;;19.30;81.00;;;;;;5011779;28;20304;-50
2022/03/23 12:45:04;;;;;;;17.25;8.98;;;19.00;81.10;;;;;;5011025;28;20041;-49
2022/03/23 12:47:33;;;;;;;23.23;8.48;;;19.20;80.60;;;;;;4971514;28;20961;-53
2022/03/23 12:58:39;;;;;;;15.85;7.88;;;19.10;82.90;;;;;;4898007;29;20051;-49
2022/03/23 13:01:17;;;;;;;20.27;8.50;;;20.40;83.50;;;;;;4896378;29;20586;-51
2022/03/23 13:04:06;;;;;;;21.52;9.20;;;19.10;83.90;;;;;;4896761;29;20040;-48
2022/03/23 13:06:34;;;;;;;19.60;8.93;;;19.10;83.40;;;;;;4896249;29;20103;-50
2022/03/23 13:09:01;;;;;;;18.30;10.00;;;18.90;83.50;;;;;;4907847;29;20055;-47
2022/03/23 13:11:32;;;;;;;20.52;8.93;;;18.90;83.00;;;;;;4915280;29;21137;-50
2022/03/23 13:14:00;;;;;;;18.95;8.95;;;21.20;83.40;;;;;;4914496;29;20142;-49
2022/03/23 13:16:36;;;;;;;21.25;8.70;;;18.80;83.30;;;;;;4914750;29;20048;-49
2022/03/23 13:19:05;;;;;;;21.00;8.15;;;19.40;83.60;;;;;;4914542;29;20118;-52
2022/03/23 13:21:33;;;;;;;24.35;8.63;;;18.90;84.10;;;;;;4914947;29;20039;-47
2022/03/23 13:24:03;;;;;;;19.25;8.75;;;20.90;85.10;;;;;;4915070;29;20118;-48
2022/03/23 13:26:40;;;;;;;23.00;8.90;;;18.70;83.50;;;;;;4915896;29;20070;-49
2022/03/23 13:29:10;;;;;;;20.70;9.15;;;18.80;86.30;;;;;;4915204;29;20516;-49
2022/03/23 13:31:38;;;;;;;25.88;9.82;;;18.80;83.40;;;;;;4912852;29;20122;-48
2022/03/23 13:34:07;;;;;;;27.17;10.40;;;19.00;82.90;;;;;;4981626;28;20990;-49